createdAt,value
2018-08-25T00:03:41.385Z,19.30
2018-08-25T00:08:44.491Z,19.20
2018-08-25T00:13:47.595Z,19.20
2018-08-25T00:18:50.715Z,19.10
2018-08-25T00:23:53.799Z,19.10
2018-08-25T00:28:56.906Z,19.00
2018-08-25T00:34:00.002Z,19.00
2018-08-25T00:39:03.678Z,18.90
2018-08-25T00:44:06.816Z,18.90
2018-08-25T00:49:09.928Z,18.80
2018-08-25T00:54:13.014Z,18.70
2018-08-25T00:59:16.148Z,18.70
2018-08-25T01:04:19.223Z,18.60
2018-08-25T01:09:22.325Z,18.60
2018-08-25T01:14:25.451Z,18.50
2018-08-25T01:19:28.552Z,18.50
2018-08-25T01:24:31.630Z,18.40
2018-08-25T01:29:34.728Z,18.40
2018-08-25T01:34:37.859Z,18.30
2018-08-25T01:39:40.992Z,18.30
2018-08-25T01:44:44.097Z,18.20
2018-08-25T01:49:47.175Z,18.20
2018-08-25T01:54:50.266Z,18.10
2018-08-25T01:59:53.386Z,18.10
2018-08-25T02:04:56.464Z,18.10
2018-08-25T02:09:59.554Z,18.00
2018-08-25T02:15:02.645Z,18.00
2018-08-25T02:20:06.203Z,17.90
2018-08-25T02:25:09.318Z,17.90
2018-08-25T02:30:12.508Z,17.80
2018-08-25T02:35:15.602Z,17.80
2018-08-25T02:40:18.706Z,17.80
2018-08-25T02:45:23.754Z,17.70
2018-08-25T02:50:26.880Z,17.70
2018-08-25T02:55:29.995Z,17.60
2018-08-25T03:00:33.112Z,17.60
2018-08-25T03:05:36.206Z,17.50
2018-08-25T03:10:39.299Z,17.40
2018-08-25T03:15:42.427Z,17.30
2018-08-25T03:20:45.537Z,17.30
2018-08-25T03:25:48.636Z,17.30
2018-08-25T03:30:51.712Z,17.20
2018-08-25T03:35:55.044Z,17.20
2018-08-25T03:40:58.146Z,17.10
2018-08-25T03:46:01.235Z,17.10
2018-08-25T03:51:04.373Z,17.10
2018-08-25T03:56:07.564Z,17.00
2018-08-25T04:01:10.632Z,16.90
2018-08-25T04:06:13.714Z,16.90
2018-08-25T04:11:16.811Z,16.90
2018-08-25T04:16:19.980Z,16.80
2018-08-25T04:21:23.050Z,16.80
2018-08-25T04:26:26.174Z,16.80
2018-08-25T04:31:29.295Z,16.70
2018-08-25T04:36:32.375Z,16.70
2018-08-25T04:41:35.511Z,16.70
2018-08-25T04:46:38.742Z,16.70
2018-08-25T04:51:41.843Z,16.70
2018-08-25T04:56:44.941Z,16.70
2018-08-25T05:01:48.042Z,16.70
2018-08-25T05:06:51.114Z,16.80
2018-08-25T05:11:54.247Z,16.80
2018-08-25T05:16:57.371Z,16.80
2018-08-25T05:22:00.487Z,16.80
2018-08-25T05:27:03.552Z,16.80
2018-08-25T05:32:07.079Z,16.80
2018-08-25T05:37:10.163Z,16.80
2018-08-25T05:42:13.262Z,16.80
2018-08-25T05:47:16.364Z,16.90
2018-08-25T05:52:19.468Z,16.90
2018-08-25T05:57:22.584Z,17.00
2018-08-25T06:02:25.707Z,17.00
2018-08-25T06:07:28.804Z,17.10
2018-08-25T06:12:31.926Z,17.10
2018-08-25T06:17:35.239Z,17.20
2018-08-25T06:22:38.351Z,17.20
2018-08-25T06:27:41.467Z,17.30
2018-08-25T06:32:44.569Z,17.40
2018-08-25T06:37:47.659Z,17.60
2018-08-25T06:42:50.771Z,17.60
2018-08-25T06:47:53.862Z,17.80
2018-08-25T06:52:56.968Z,17.90
2018-08-25T06:58:00.071Z,18.00
2018-08-25T07:03:03.357Z,18.10
2018-08-25T07:08:06.446Z,18.20
2018-08-25T07:13:09.548Z,18.30
2018-08-25T07:18:19.433Z,18.30
2018-08-25T07:23:22.522Z,18.40
2018-08-25T07:28:25.607Z,18.50
2018-08-25T07:33:28.723Z,18.60
2018-08-25T07:38:31.821Z,18.70
2018-08-25T07:43:35.035Z,18.90
2018-08-25T07:48:38.357Z,19.00
2018-08-25T07:53:41.465Z,19.20
2018-08-25T07:58:44.527Z,19.30
2018-08-25T08:03:47.627Z,19.40
2018-08-25T08:08:50.707Z,19.50
2018-08-25T08:13:53.791Z,19.50
2018-08-25T08:18:56.899Z,19.50
2018-08-25T08:24:00.028Z,19.60
2018-08-25T08:29:03.120Z,19.60
2018-08-25T08:34:06.360Z,19.60
2018-08-25T08:39:09.911Z,19.50
2018-08-25T08:44:13.003Z,19.50
2018-08-25T08:49:16.112Z,19.50
2018-08-25T08:54:19.212Z,19.50
2018-08-25T08:59:22.310Z,19.40
2018-08-25T09:04:25.419Z,19.40
2018-08-25T09:09:28.523Z,19.30
2018-08-25T09:14:31.643Z,19.30
2018-08-25T09:19:34.847Z,19.30
2018-08-25T09:24:37.930Z,19.20
2018-08-25T09:29:41.036Z,19.20
2018-08-25T09:34:44.139Z,19.20
2018-08-25T09:39:47.236Z,19.10
2018-08-25T09:44:50.346Z,19.10
2018-08-25T09:49:54.466Z,19.10
2018-08-25T09:54:57.641Z,19.20
2018-08-25T10:00:00.730Z,19.20
2018-08-25T10:05:03.857Z,19.30
2018-08-25T10:10:07.411Z,19.30
2018-08-25T10:15:10.498Z,19.30
2018-08-25T10:20:13.587Z,19.40
2018-08-25T10:25:16.671Z,19.60
2018-08-25T10:30:19.755Z,19.80
2018-08-25T10:35:22.850Z,19.90
2018-08-25T10:40:25.955Z,20.10
2018-08-25T10:45:29.035Z,20.20
2018-08-25T10:50:32.147Z,20.50
2018-08-25T10:55:35.234Z,20.70
2018-08-25T11:00:38.482Z,20.90
2018-08-25T11:05:41.415Z,21.00
2018-08-25T11:10:44.544Z,21.10
2018-08-25T11:15:47.682Z,20.90
2018-08-25T11:20:50.795Z,20.80
2018-08-25T11:25:54.060Z,20.60
2018-08-25T11:30:57.142Z,20.60
2018-08-25T11:36:00.272Z,20.50
2018-08-25T11:41:03.377Z,20.50
2018-08-25T11:46:06.575Z,20.40
2018-08-25T11:51:09.663Z,20.30
2018-08-25T11:56:12.780Z,20.30
2018-08-25T12:01:15.884Z,20.20
2018-08-25T12:06:18.991Z,20.30
2018-08-25T12:11:22.073Z,20.30
2018-08-25T12:16:25.242Z,20.20
2018-08-25T12:21:28.299Z,20.20
2018-08-25T12:26:31.402Z,20.30
2018-08-25T12:31:34.794Z,20.40
2018-08-25T12:36:37.906Z,20.50
2018-08-25T12:41:41.030Z,20.60
2018-08-25T12:46:44.231Z,20.60
2018-08-25T12:51:47.438Z,20.60
2018-08-25T12:56:50.412Z,20.50
2018-08-25T13:01:53.510Z,20.60
2018-08-25T13:06:56.609Z,20.60
2018-08-25T13:11:59.703Z,20.70
2018-08-25T13:17:02.816Z,20.80
2018-08-25T13:22:07.115Z,20.90
2018-08-25T13:27:10.267Z,21.00
2018-08-25T13:32:13.351Z,21.00
2018-08-25T13:37:16.438Z,21.00
2018-08-25T13:42:19.532Z,21.00
2018-08-25T13:47:22.631Z,21.00
2018-08-25T13:52:25.736Z,20.90
2018-08-25T13:57:28.834Z,21.00
2018-08-25T14:02:31.954Z,21.00
2018-08-25T14:07:35.347Z,20.90
2018-08-25T14:12:38.467Z,20.90
2018-08-25T14:17:41.550Z,20.90
2018-08-25T14:22:44.632Z,20.80
2018-08-25T14:27:47.722Z,20.90
2018-08-25T14:32:50.819Z,21.00
2018-08-25T14:37:53.924Z,21.20
2018-08-25T14:42:57.123Z,21.20
2018-08-25T14:48:00.230Z,21.30
2018-08-25T14:53:03.415Z,21.20
2018-08-25T14:58:06.634Z,21.20
2018-08-25T15:03:10.069Z,21.20
2018-08-25T15:08:13.179Z,21.20
2018-08-25T15:13:16.328Z,21.20
2018-08-25T15:18:19.383Z,21.10
2018-08-25T15:23:22.476Z,21.10
2018-08-25T15:28:25.575Z,21.10
2018-08-25T15:33:28.651Z,21.10
2018-08-25T15:38:31.750Z,21.00
2018-08-25T15:43:34.883Z,21.00
2018-08-25T15:48:38.002Z,21.00
2018-08-25T15:53:41.131Z,21.00
2018-08-25T15:58:44.238Z,21.00
2018-08-25T16:03:47.355Z,21.00
2018-08-25T16:08:50.448Z,20.90
2018-08-25T16:13:53.590Z,20.80
2018-08-25T16:18:56.683Z,20.80
2018-08-25T16:23:59.767Z,20.80
2018-08-25T16:29:02.859Z,20.80
2018-08-25T16:34:05.942Z,20.80
2018-08-25T16:39:09.059Z,20.70
2018-08-25T16:44:12.138Z,20.70
2018-08-25T16:49:15.297Z,20.70
2018-08-25T16:54:18.360Z,20.70
2018-08-25T16:59:21.447Z,20.60
2018-08-25T17:04:24.577Z,20.60
2018-08-25T17:09:27.706Z,20.50
2018-08-25T17:14:30.792Z,20.40
2018-08-25T17:19:40.377Z,20.40
2018-08-25T17:24:43.618Z,20.30
2018-08-25T17:29:46.707Z,20.20
2018-08-25T17:34:49.815Z,20.20
2018-08-25T17:39:52.943Z,20.20
2018-08-25T17:44:56.044Z,20.10
2018-08-25T17:49:59.115Z,20.10
2018-08-25T17:55:02.217Z,20.10
2018-08-25T18:00:06.139Z,20.00
2018-08-25T18:05:09.257Z,19.90
2018-08-25T18:10:12.350Z,19.90
2018-08-25T18:15:15.470Z,19.90
2018-08-25T18:20:18.579Z,19.80
2018-08-25T18:25:21.687Z,19.70
2018-08-25T18:30:24.845Z,19.70
2018-08-25T18:35:28.388Z,19.60
2018-08-25T18:40:31.577Z,19.50
2018-08-25T18:45:34.650Z,19.40
2018-08-25T18:50:37.746Z,19.30
2018-08-25T18:55:40.854Z,19.20
2018-08-25T19:00:43.935Z,19.10
2018-08-25T19:05:47.023Z,19.00
2018-08-25T19:10:50.107Z,19.00
2018-08-25T19:15:53.210Z,18.80
2018-08-25T19:20:56.336Z,18.70
2018-08-25T19:25:59.426Z,18.70
2018-08-25T19:31:02.523Z,18.60
2018-08-25T19:36:05.619Z,18.60
2018-08-25T19:41:09.863Z,18.50
2018-08-25T19:46:12.951Z,18.40
2018-08-25T19:51:16.072Z,18.30
2018-08-25T19:56:19.187Z,18.20
2018-08-25T20:01:22.303Z,18.20
2018-08-25T20:06:25.394Z,18.10
2018-08-25T20:11:28.524Z,18.10
2018-08-25T20:16:31.639Z,18.00
2018-08-25T20:21:34.740Z,17.90
2018-08-25T20:26:37.830Z,17.90
2018-08-25T20:31:40.970Z,17.70
2018-08-25T20:36:44.060Z,17.70
2018-08-25T20:41:47.170Z,17.60
2018-08-25T20:46:50.264Z,17.60
2018-08-25T20:51:53.371Z,17.50
2018-08-25T20:56:56.478Z,17.40
2018-08-25T21:01:59.603Z,17.40
2018-08-25T21:07:03.480Z,17.30
2018-08-25T21:12:06.583Z,17.30
2018-08-25T21:17:09.697Z,17.20
2018-08-25T21:22:12.899Z,17.10
2018-08-25T21:27:16.008Z,17.10
2018-08-25T21:32:19.104Z,17.00
2018-08-25T21:37:22.209Z,17.00
2018-08-25T21:42:25.284Z,16.90
2018-08-25T21:47:28.389Z,16.90
2018-08-25T21:52:31.512Z,16.80
2018-08-25T21:57:34.603Z,16.80
2018-08-25T22:02:37.699Z,16.80
2018-08-25T22:07:40.797Z,16.70
2018-08-25T22:12:43.891Z,16.60
2018-08-25T22:17:47.008Z,16.60
2018-08-25T22:22:50.109Z,16.60
2018-08-25T22:27:53.210Z,16.50
2018-08-25T22:32:56.311Z,16.50
2018-08-25T22:37:59.423Z,16.40
2018-08-25T22:43:02.539Z,16.40
2018-08-25T22:48:05.646Z,16.40
2018-08-25T22:53:08.783Z,16.30
2018-08-25T22:58:11.878Z,16.30
2018-08-25T23:03:15.001Z,16.30
2018-08-25T23:08:18.101Z,16.20
2018-08-25T23:13:21.219Z,16.20
2018-08-25T23:18:24.303Z,16.10
2018-08-25T23:23:27.410Z,16.10
2018-08-25T23:28:30.539Z,16.10
2018-08-25T23:33:33.738Z,16.10
2018-08-25T23:38:36.837Z,16.00
2018-08-25T23:43:39.918Z,16.00
2018-08-25T23:48:42.994Z,16.00
2018-08-25T23:53:46.120Z,16.00
2018-08-25T23:58:49.218Z,15.90
